createdAt,value
2022-10-18T00:00:13.353Z,100.00
2022-10-18T00:03:18.314Z,100.00
2022-10-18T00:06:20.858Z,100.00
2022-10-18T00:09:48.231Z,100.00
2022-10-18T00:12:55.875Z,100.00
2022-10-18T00:16:02.660Z,100.00
2022-10-18T00:19:10.217Z,100.00
2022-10-18T00:22:14.832Z,100.00
2022-10-18T00:25:25.745Z,100.00
2022-10-18T00:28:57.272Z,100.00
2022-10-18T00:32:20.749Z,100.00
2022-10-18T00:35:49.239Z,100.00
2022-10-18T00:39:18.187Z,100.00
2022-10-18T00:42:28.013Z,100.00
2022-10-18T00:45:30.954Z,100.00
2022-10-18T00:48:36.245Z,100.00
2022-10-18T00:51:52.921Z,100.00
2022-10-18T00:54:57.969Z,100.00
2022-10-18T00:58:07.247Z,100.00
2022-10-18T01:01:10.494Z,100.00
2022-10-18T01:04:18.094Z,100.00
2022-10-18T01:08:16.703Z,100.00
2022-10-18T01:11:57.255Z,100.00
2022-10-18T01:16:25.692Z,100.00
2022-10-18T01:19:39.011Z,100.00
2022-10-18T01:22:55.125Z,100.00
2022-10-18T01:26:01.823Z,100.00
2022-10-18T01:29:32.295Z,100.00
2022-10-18T01:32:44.640Z,100.00
2022-10-18T01:35:57.562Z,100.00
2022-10-18T01:39:31.326Z,100.00
2022-10-18T01:43:41.225Z,100.00
2022-10-18T01:47:05.638Z,100.00
2022-10-18T01:50:10.368Z,100.00
2022-10-18T01:53:30.962Z,100.00
2022-10-18T01:57:05.987Z,100.00
2022-10-18T02:00:39.060Z,100.00
2022-10-18T02:04:23.975Z,100.00
2022-10-18T02:08:23.916Z,100.00
2022-10-18T02:11:31.683Z,100.00
2022-10-18T02:14:37.117Z,100.00
2022-10-18T02:18:11.199Z,100.00
2022-10-18T02:21:53.848Z,100.00
2022-10-18T02:25:39.285Z,100.00
2022-10-18T02:28:47.991Z,100.00
2022-10-18T02:32:49.755Z,100.00
2022-10-18T02:36:41.029Z,100.00
2022-10-18T02:40:46.739Z,100.00
2022-10-18T02:43:49.911Z,100.00
2022-10-18T02:47:14.843Z,100.00
2022-10-18T02:50:59.832Z,100.00
2022-10-18T02:54:26.666Z,100.00
2022-10-18T02:57:50.891Z,100.00
2022-10-18T03:01:02.756Z,100.00
2022-10-18T03:04:08.296Z,100.00
2022-10-18T03:07:46.390Z,100.00
2022-10-18T03:11:31.941Z,100.00
2022-10-18T03:14:36.803Z,100.00
2022-10-18T03:17:42.144Z,100.00
2022-10-18T03:21:09.856Z,100.00
2022-10-18T03:24:14.141Z,100.00
2022-10-18T03:27:40.375Z,100.00
2022-10-18T03:30:56.727Z,100.00
2022-10-18T03:34:39.163Z,100.00
2022-10-18T03:38:08.420Z,100.00
2022-10-18T03:41:51.495Z,100.00
2022-10-18T03:45:38.288Z,100.00
2022-10-18T03:49:01.475Z,100.00
2022-10-18T03:52:44.599Z,100.00
2022-10-18T03:56:26.914Z,100.00
2022-10-18T03:59:31.550Z,100.00
2022-10-18T04:02:56.180Z,100.00
2022-10-18T04:06:19.202Z,100.00
2022-10-18T04:10:03.173Z,100.00
2022-10-18T04:13:11.366Z,100.00
2022-10-18T04:16:34.062Z,100.00
2022-10-18T04:20:33.237Z,100.00
2022-10-18T04:23:57.407Z,100.00
2022-10-18T04:27:39.840Z,100.00
2022-10-18T04:31:06.676Z,100.00
2022-10-18T04:34:11.004Z,100.00
2022-10-18T04:37:38.919Z,100.00
2022-10-18T04:41:14.603Z,100.00
2022-10-18T04:44:55.370Z,100.00
2022-10-18T04:48:15.556Z,100.00
2022-10-18T04:51:50.901Z,100.00
2022-10-18T04:55:54.457Z,100.00
2022-10-18T04:59:18.060Z,100.00
2022-10-18T05:03:03.108Z,100.00
2022-10-18T05:06:29.437Z,100.00
2022-10-18T05:09:40.682Z,100.00
2022-10-18T05:12:45.855Z,100.00
2022-10-18T05:16:10.056Z,100.00
2022-10-18T05:19:34.595Z,100.00
2022-10-18T05:22:59.738Z,100.00
2022-10-18T05:26:10.467Z,100.00
2022-10-18T05:29:57.174Z,100.00
2022-10-18T05:33:22.685Z,100.00
2022-10-18T05:36:50.039Z,100.00
2022-10-18T05:39:52.598Z,100.00
2022-10-18T05:43:18.236Z,100.00
2022-10-18T05:47:09.064Z,100.00
2022-10-18T05:50:36.685Z,100.00
2022-10-18T05:54:06.379Z,100.00
2022-10-18T05:57:10.330Z,100.00
2022-10-18T06:00:16.477Z,100.00
2022-10-18T06:04:19.728Z,100.00
2022-10-18T06:07:25.321Z,100.00
2022-10-18T06:10:28.800Z,100.00
2022-10-18T06:13:55.387Z,100.00
2022-10-18T06:17:28.918Z,100.00
2022-10-18T06:24:37.965Z,100.00
2022-10-18T06:28:11.543Z,100.00
2022-10-18T06:31:39.395Z,100.00
2022-10-18T06:35:24.481Z,100.00
2022-10-18T06:38:47.045Z,99.89
2022-10-18T06:42:20.460Z,99.94
2022-10-18T06:45:46.059Z,96.73
2022-10-18T06:48:49.862Z,94.55
2022-10-18T06:52:12.215Z,92.14
2022-10-18T06:55:37.816Z,91.49
2022-10-18T06:58:42.197Z,90.25
2022-10-18T07:01:46.523Z,87.44
2022-10-18T07:04:49.335Z,86.75
2022-10-18T07:07:56.939Z,84.20
2022-10-18T07:11:02.416Z,84.62
2022-10-18T07:14:29.256Z,81.96
2022-10-18T07:17:33.592Z,82.63
2022-10-18T07:20:39.687Z,80.23
2022-10-18T07:23:46.559Z,78.75
2022-10-18T07:26:50.492Z,78.59
2022-10-18T07:30:00.998Z,77.58
2022-10-18T07:33:04.127Z,76.43
2022-10-18T07:36:13.592Z,75.43
2022-10-18T07:39:22.745Z,74.61
2022-10-18T07:42:26.213Z,74.24
2022-10-18T07:45:29.437Z,73.78
2022-10-18T07:48:32.391Z,74.04
2022-10-18T07:51:55.110Z,72.94
2022-10-18T07:55:00.547Z,71.43
2022-10-18T07:58:04.280Z,70.59
2022-10-18T08:01:40.641Z,70.97
2022-10-18T08:27:47.990Z,69.10
2022-10-18T08:31:17.936Z,67.29
2022-10-18T08:34:54.095Z,67.48
2022-10-18T08:38:35.075Z,67.42
2022-10-18T08:49:51.064Z,65.39
2022-10-18T09:46:00.495Z,50.20
2022-10-18T09:50:00.188Z,50.94
2022-10-18T09:53:44.783Z,49.48
2022-10-18T09:57:17.195Z,49.67
2022-10-18T10:00:28.838Z,50.25
2022-10-18T10:04:33.618Z,46.66
2022-10-18T10:08:02.548Z,47.38
2022-10-18T10:11:30.612Z,47.75
2022-10-18T10:15:31.265Z,47.75
2022-10-18T10:19:19.293Z,47.48
2022-10-18T10:22:45.374Z,47.08
2022-10-18T10:25:54.751Z,46.93
2022-10-18T10:29:50.103Z,46.88
2022-10-18T10:33:04.587Z,45.92
2022-10-18T10:36:18.513Z,45.78
2022-10-18T10:39:36.582Z,46.36
2022-10-18T10:43:38.779Z,46.34
2022-10-18T10:46:48.642Z,44.29
2022-10-18T10:49:53.252Z,44.25
2022-10-18T10:53:52.735Z,40.93
2022-10-18T10:57:26.382Z,41.13
2022-10-18T11:00:51.724Z,40.13
2022-10-18T11:04:02.073Z,37.61
2022-10-18T11:07:31.132Z,35.06
2022-10-18T11:11:29.576Z,35.80
2022-10-18T11:14:39.450Z,35.22
2022-10-18T11:17:47.153Z,33.81
2022-10-18T11:24:17.136Z,34.25
2022-10-18T11:27:43.249Z,31.79
2022-10-18T11:31:10.953Z,32.87
2022-10-18T11:34:44.084Z,33.55
2022-10-18T11:38:22.092Z,33.45
2022-10-18T11:42:30.973Z,34.03
2022-10-18T11:46:17.197Z,34.41
2022-10-18T11:50:10.480Z,34.60
2022-10-18T11:53:26.000Z,36.23
2022-10-18T11:57:20.842Z,35.82
2022-10-18T12:01:12.564Z,36.62
2022-10-18T12:04:26.373Z,36.23
2022-10-18T12:07:58.951Z,35.25
2022-10-18T12:11:13.604Z,35.38
2022-10-18T12:14:57.846Z,35.67
2022-10-18T12:18:18.715Z,35.97
2022-10-18T12:21:43.902Z,36.24
2022-10-18T12:24:47.551Z,35.35
2022-10-18T12:28:33.913Z,35.82
2022-10-18T12:32:37.453Z,35.47
2022-10-18T12:36:07.949Z,35.52
2022-10-18T12:39:32.363Z,35.38
2022-10-18T12:43:34.941Z,36.26
2022-10-18T12:47:22.947Z,36.53
2022-10-18T12:55:04.914Z,33.63
2022-10-18T13:02:33.922Z,35.17
2022-10-18T13:06:24.440Z,36.05
2022-10-18T13:46:13.146Z,38.48
2022-10-18T14:20:49.498Z,40.39
2022-10-18T14:24:30.306Z,40.26
2022-10-18T14:27:37.892Z,41.29
2022-10-18T14:31:08.543Z,41.60
2022-10-18T14:34:17.838Z,41.82
2022-10-18T14:37:31.384Z,42.43
2022-10-18T14:40:41.097Z,42.36
2022-10-18T14:43:50.662Z,43.81
2022-10-18T14:47:20.626Z,44.60
2022-10-18T14:50:30.622Z,45.21
2022-10-18T14:53:39.440Z,44.94
2022-10-18T14:56:43.671Z,46.92
2022-10-18T14:59:52.599Z,47.98
2022-10-18T15:02:56.402Z,48.16
2022-10-18T15:06:07.444Z,48.77
2022-10-18T15:09:22.370Z,49.55
2022-10-18T15:13:08.370Z,51.66
2022-10-18T15:16:22.967Z,51.25
2022-10-18T15:19:43.203Z,51.93
2022-10-18T15:23:24.191Z,53.32
2022-10-18T15:26:35.724Z,53.96
2022-10-18T15:29:44.739Z,54.81
2022-10-18T15:33:24.935Z,56.31
2022-10-18T15:36:32.454Z,57.20
2022-10-18T15:39:37.425Z,58.93
2022-10-18T15:43:24.767Z,59.89
2022-10-18T15:46:32.428Z,61.66
2022-10-18T15:49:59.698Z,62.33
2022-10-18T15:53:33.800Z,64.60
2022-10-18T15:56:43.695Z,66.05
2022-10-18T16:00:08.044Z,67.04
2022-10-18T16:03:22.642Z,68.43
2022-10-18T16:06:30.310Z,68.77
2022-10-18T16:09:57.011Z,69.69
2022-10-18T16:13:04.586Z,70.30
2022-10-18T16:16:29.354Z,71.74
2022-10-18T16:19:33.825Z,72.61
2022-10-18T16:23:01.447Z,72.79
2022-10-18T16:26:14.264Z,74.22
2022-10-18T16:29:32.071Z,74.85
2022-10-18T16:32:37.356Z,76.36
2022-10-18T16:36:00.089Z,77.21
2022-10-18T16:39:07.789Z,77.98
2022-10-18T16:42:10.215Z,78.22
2022-10-18T16:45:34.263Z,78.35
2022-10-18T16:48:47.777Z,78.71
2022-10-18T16:52:23.303Z,80.20
2022-10-18T16:56:03.110Z,80.79
2022-10-18T16:59:45.963Z,81.30
2022-10-18T17:03:10.321Z,82.17
2022-10-18T17:06:50.413Z,82.92
2022-10-18T17:14:23.725Z,84.18
2022-10-18T17:18:16.877Z,84.26
2022-10-18T17:21:51.844Z,84.29
2022-10-18T17:25:16.676Z,84.63
2022-10-18T17:28:21.778Z,85.50
2022-10-18T17:31:44.472Z,86.22
2022-10-18T17:34:47.691Z,86.17
2022-10-18T17:38:40.777Z,86.30
2022-10-18T17:42:29.461Z,87.31
2022-10-18T17:45:32.489Z,87.90
2022-10-18T17:48:43.481Z,88.48
2022-10-18T17:52:26.251Z,88.70
2022-10-18T17:56:12.999Z,88.14
2022-10-18T17:59:37.641Z,89.43
2022-10-18T18:03:23.160Z,89.88
2022-10-18T18:06:49.139Z,90.49
2022-10-18T18:09:52.551Z,90.47
2022-10-18T18:13:19.749Z,90.89
2022-10-18T18:16:25.474Z,91.59
2022-10-18T18:19:34.864Z,91.87
2022-10-18T18:22:53.709Z,91.52
2022-10-18T18:26:43.973Z,91.93
2022-10-18T18:30:09.640Z,92.15
2022-10-18T18:37:43.512Z,92.30
2022-10-18T18:41:12.786Z,92.42
2022-10-18T18:44:36.314Z,92.94
2022-10-18T18:47:42.458Z,93.62
2022-10-18T18:51:24.834Z,93.78
2022-10-18T18:54:47.611Z,94.77
2022-10-18T18:58:32.402Z,94.62
2022-10-18T19:06:37.382Z,94.90
2022-10-18T19:09:51.656Z,95.43
2022-10-18T19:13:34.789Z,95.88
2022-10-18T19:17:13.370Z,96.00
2022-10-18T19:20:48.705Z,96.54
2022-10-18T19:24:25.626Z,96.95
2022-10-18T19:27:48.974Z,96.72
2022-10-18T19:30:58.434Z,97.42
2022-10-18T19:34:08.015Z,97.95
2022-10-18T19:37:34.374Z,97.95
2022-10-18T19:40:46.284Z,97.85
2022-10-18T19:44:11.358Z,98.15
2022-10-18T19:47:17.569Z,98.19
2022-10-18T19:53:50.300Z,98.77
2022-10-18T19:57:19.069Z,98.74
2022-10-18T20:00:44.189Z,99.47
2022-10-18T20:04:39.082Z,99.44
2022-10-18T20:07:57.716Z,99.60
2022-10-18T20:11:23.772Z,99.49
2022-10-18T20:14:41.148Z,100.00
2022-10-18T20:18:05.997Z,100.00
2022-10-18T20:21:38.125Z,100.00
2022-10-18T20:25:23.961Z,100.00
2022-10-18T20:29:13.271Z,100.00
2022-10-18T20:32:40.308Z,100.00
2022-10-18T20:36:10.095Z,100.00
2022-10-18T20:43:38.778Z,100.00
2022-10-18T20:47:13.721Z,100.00
2022-10-18T20:50:55.912Z,100.00
2022-10-18T20:54:41.122Z,100.00
2022-10-18T20:57:50.113Z,100.00
2022-10-18T21:01:37.858Z,100.00
2022-10-18T21:04:42.288Z,100.00
2022-10-18T21:08:08.096Z,100.00
2022-10-18T21:11:15.293Z,100.00
2022-10-18T21:15:00.786Z,100.00
2022-10-18T21:18:28.395Z,100.00
2022-10-18T21:21:44.909Z,100.00
2022-10-18T21:25:24.364Z,100.00
2022-10-18T21:29:25.297Z,100.00
2022-10-18T21:33:30.082Z,100.00
2022-10-18T21:36:55.743Z,100.00
2022-10-18T21:40:21.280Z,100.00
2022-10-18T21:43:58.480Z,100.00
2022-10-18T21:47:22.551Z,100.00
2022-10-18T21:50:49.000Z,100.00
2022-10-18T21:53:54.803Z,100.00
2022-10-18T21:57:18.539Z,100.00
2022-10-18T22:00:52.816Z,100.00
2022-10-18T22:04:40.650Z,100.00
2022-10-18T22:08:13.825Z,100.00
2022-10-18T22:11:48.546Z,100.00
2022-10-18T22:15:28.626Z,100.00
2022-10-18T22:19:00.983Z,100.00
2022-10-18T22:22:24.647Z,100.00
2022-10-18T22:26:02.494Z,100.00
2022-10-18T22:29:25.181Z,100.00
2022-10-18T22:32:49.086Z,100.00
2022-10-18T22:36:13.948Z,100.00
2022-10-18T22:39:39.880Z,100.00
2022-10-18T22:42:46.793Z,100.00
2022-10-18T22:45:52.020Z,100.00
2022-10-18T22:49:32.444Z,100.00
2022-10-18T22:53:16.490Z,100.00
2022-10-18T22:56:41.240Z,100.00
2022-10-18T23:00:09.485Z,100.00
2022-10-18T23:03:34.582Z,100.00
2022-10-18T23:07:19.863Z,100.00
2022-10-18T23:11:07.050Z,100.00
2022-10-18T23:14:32.707Z,100.00
2022-10-18T23:17:59.300Z,100.00
2022-10-18T23:21:24.676Z,100.00
2022-10-18T23:24:30.880Z,100.00
2022-10-18T23:27:34.893Z,100.00
2022-10-18T23:30:58.450Z,99.38
2022-10-18T23:34:29.464Z,99.35
2022-10-18T23:37:56.971Z,99.31
2022-10-18T23:41:20.742Z,98.94
2022-10-18T23:44:24.968Z,99.06
2022-10-18T23:47:37.855Z,99.06
2022-10-18T23:50:44.694Z,99.02
2022-10-18T23:54:28.186Z,99.22
2022-10-18T23:57:36.904Z,99.45
